Time;durP1;ratioP1;P1;durP2;ratioP2;P2;SDS_P1;SDS_P2;PMS_P1;PMS_P2;Temp;Humidity;BMP_temperature;BMP_pressure;BME280_temperature;BME280_humidity;BME280_pressure;Samples;Min_cycle;Max_cycle;Signal;HPM_P1;HPM_P2
2022/10/28 00:02:15;;;;;;;16.55;3.60;;;19.30;99.90;;;;;;4996639;28;20173;-80
2022/10/28 00:04:40;;;;;;;10.70;3.05;;;19.30;99.90;;;;;;4997076;28;20188;-82
2022/10/28 00:07:06;;;;;;;8.20;2.47;;;19.30;99.90;;;;;;4996615;28;20288;-80
2022/10/28 00:09:31;;;;;;;10.32;3.40;;;19.20;99.90;;;;;;4996462;28;20189;-80
2022/10/28 00:11:57;;;;;;;7.07;3.10;;;19.30;99.90;;;;;;4996714;28;20181;-80
2022/10/28 00:14:22;;;;;;;10.55;3.88;;;19.20;99.90;;;;;;4996531;28;20261;-80
2022/10/28 00:16:48;;;;;;;22.10;3.20;;;19.10;99.90;;;;;;4995947;28;20666;-80
2022/10/28 00:19:14;;;;;;;12.88;3.30;;;19.10;99.90;;;;;;4996218;28;20169;-81
2022/10/28 00:21:42;;;;;;;7.50;3.30;;;19.10;99.90;;;;;;4996357;28;20248;-80
2022/10/28 00:24:09;;;;;;;15.75;3.17;;;19.10;99.90;;;;;;4996443;28;20639;-80
2022/10/28 00:26:36;;;;;;;15.15;4.13;;;19.30;99.90;;;;;;4996099;28;20267;-81
2022/10/28 00:29:05;;;;;;;9.57;3.08;;;19.30;99.90;;;;;;4995766;28;20533;-79
2022/10/28 00:31:32;;;;;;;12.07;3.30;;;19.20;99.90;;;;;;4997768;28;20271;-88
2022/10/28 00:34:00;;;;;;;15.32;3.75;;;19.10;99.90;;;;;;4997480;28;20165;-79
2022/10/28 00:36:32;;;;;;;7.50;2.72;;;19.20;99.90;;;;;;4996995;28;20196;-79
2022/10/28 00:38:59;;;;;;;6.63;3.10;;;19.10;99.90;;;;;;4996533;28;20166;-85
2022/10/28 00:41:29;;;;;;;9.85;2.42;;;19.10;99.90;;;;;;4997415;28;20200;-79
2022/10/28 00:44:33;;;;;;;16.45;3.42;;;19.30;99.90;;;;;;4996453;28;20169;-78
2022/10/28 00:46:58;;;;;;;17.08;3.25;;;19.30;99.90;;;;;;4972495;28;20205;-84
2022/10/28 00:49:29;;;;;;;6.97;2.90;;;19.10;99.90;;;;;;5011751;28;20173;-79
2022/10/28 00:52:07;;;;;;;12.45;2.75;;;19.10;99.90;;;;;;4997627;28;20543;-80
2022/10/28 00:54:34;;;;;;;14.43;3.47;;;19.10;99.90;;;;;;4997026;28;20277;-80
2022/10/28 00:57:04;;;;;;;8.93;3.30;;;19.10;99.90;;;;;;5012194;28;20197;-83
2022/10/28 00:59:36;;;;;;;15.70;3.97;;;19.00;99.90;;;;;;4998518;28;20208;-79
2022/10/28 01:02:03;;;;;;;9.23;2.92;;;19.10;99.90;;;;;;4996215;28;20653;-82
2022/10/28 01:04:29;;;;;;;17.40;3.13;;;19.10;99.90;;;;;;4997194;28;20172;-81
2022/10/28 01:06:56;;;;;;;14.80;3.03;;;19.00;99.90;;;;;;4996277;28;20210;-79
2022/10/28 01:09:22;;;;;;;8.98;3.55;;;19.00;99.90;;;;;;4996466;28;20634;-79
2022/10/28 01:12:09;;;;;;;10.30;3.40;;;18.90;99.90;;;;;;4996058;28;20173;-80
2022/10/28 01:14:43;;;;;;;7.82;4.25;;;18.90;99.90;;;;;;4996233;28;20639;-80
2022/10/28 01:17:37;;;;;;;8.13;2.72;;;18.90;99.90;;;;;;4995810;28;20197;-80
2022/10/28 01:20:20;;;;;;;11.80;3.00;;;18.80;99.90;;;;;;4996519;28;20179;-78
2022/10/28 01:22:46;;;;;;;6.00;2.90;;;18.80;99.90;;;;;;4996007;28;20165;-79
2022/10/28 01:25:52;;;;;;;9.52;3.00;;;18.90;99.90;;;;;;4996154;28;20816;-80
2022/10/28 01:28:40;;;;;;;33.50;5.13;;;18.90;99.90;;;;;;4954596;28;20198;-79
2022/10/28 01:31:16;;;;;;;9.88;2.80;;;18.90;99.90;;;;;;4954851;29;20295;-80
2022/10/28 01:34:10;;;;;;;16.65;3.63;;;18.90;99.90;;;;;;4983200;28;20529;-80
2022/10/28 01:36:47;;;;;;;15.05;3.10;;;18.90;99.90;;;;;;4994199;28;20196;-80
2022/10/28 01:39:44;;;;;;;16.73;3.40;;;18.80;99.90;;;;;;4995025;28;20509;-80
2022/10/28 01:42:12;;;;;;;10.05;2.70;;;18.70;99.90;;;;;;4995051;28;20215;-79
2022/10/28 01:44:43;;;;;;;6.72;2.90;;;18.70;99.90;;;;;;4995035;28;20181;-79
2022/10/28 01:47:14;;;;;;;13.80;3.28;;;18.80;99.90;;;;;;4995112;28;20185;-80
2022/10/28 01:49:54;;;;;;;8.70;3.10;;;18.80;99.90;;;;;;4994860;28;20197;-79
2022/10/28 01:52:24;;;;;;;7.75;3.17;;;18.90;99.90;;;;;;4995081;28;20169;-80
2022/10/28 01:54:56;;;;;;;9.88;3.53;;;18.80;99.90;;;;;;4994769;28;20174;-81
2022/10/28 01:57:24;;;;;;;9.45;3.78;;;18.90;99.90;;;;;;4993832;28;20189;-80
2022/10/28 01:59:51;;;;;;;22.35;3.55;;;18.90;99.90;;;;;;4993389;28;20239;-80
2022/10/28 02:02:17;;;;;;;15.43;2.95;;;18.90;99.90;;;;;;4994030;28;20169;-84
2022/10/28 02:04:42;;;;;;;7.93;2.58;;;18.90;99.90;;;;;;4995323;28;20554;-79
2022/10/28 02:07:08;;;;;;;14.63;2.63;;;18.90;99.90;;;;;;5010247;28;20189;-79
2022/10/28 02:09:42;;;;;;;8.07;3.45;;;18.70;99.90;;;;;;4995039;28;20328;-79
2022/10/28 02:12:29;;;;;;;9.77;2.90;;;18.80;99.90;;;;;;4995200;28;20212;-80
2022/10/28 02:15:16;;;;;;;7.97;2.95;;;18.80;99.90;;;;;;4994833;28;20169;-78
2022/10/28 02:18:02;;;;;;;10.77;3.17;;;18.80;99.90;;;;;;4994945;28;20197;-79
2022/10/28 02:20:52;;;;;;;8.00;3.47;;;18.90;99.90;;;;;;4993854;28;20173;-79
2022/10/28 02:23:29;;;;;;;9.68;2.53;;;19.00;99.90;;;;;;4994736;28;20231;-79
2022/10/28 02:26:20;;;;;;;10.07;3.20;;;19.00;99.90;;;;;;4994344;28;20172;-80
2022/10/28 02:29:07;;;;;;;8.05;3.17;;;18.80;99.90;;;;;;4994550;28;20161;-79
2022/10/28 02:31:36;;;;;;;12.45;2.78;;;18.70;99.90;;;;;;4993928;28;20213;-79
2022/10/28 02:34:10;;;;;;;13.00;2.75;;;18.60;99.90;;;;;;4995254;28;20197;-78
2022/10/28 02:36:43;;;;;;;7.05;2.88;;;18.70;99.90;;;;;;4994076;28;20218;-79
2022/10/28 02:39:10;;;;;;;9.82;3.80;;;18.70;99.90;;;;;;4993119;28;20170;-79
2022/10/28 02:41:35;;;;;;;20.75;3.33;;;18.60;99.90;;;;;;4993794;28;20638;-80
2022/10/28 02:44:08;;;;;;;14.93;2.97;;;18.60;99.90;;;;;;4993945;28;20184;-80
2022/10/28 02:46:37;;;;;;;9.98;3.00;;;18.60;99.90;;;;;;4994479;28;20197;-81
2022/10/28 02:49:07;;;;;;;13.65;3.10;;;18.60;99.90;;;;;;4994749;28;20165;-86
2022/10/28 02:51:47;;;;;;;8.95;2.80;;;18.60;99.90;;;;;;4994505;28;20303;-81
2022/10/28 02:54:40;;;;;;;8.90;2.30;;;18.60;99.90;;;;;;4994534;28;20173;-80
2022/10/28 02:57:13;;;;;;;9.88;2.70;;;18.60;99.90;;;;;;4993378;28;20662;-80
2022/10/28 02:59:40;;;;;;;5.75;2.72;;;18.60;99.90;;;;;;4994218;28;20203;-79
2022/10/28 03:02:06;;;;;;;12.30;2.88;;;18.60;99.90;;;;;;4992825;28;20172;-80
2022/10/28 03:04:31;;;;;;;10.00;3.08;;;18.60;99.90;;;;;;4994437;28;20654;-81
2022/10/28 03:06:57;;;;;;;8.43;3.03;;;18.70;99.90;;;;;;4993792;28;20279;-79
2022/10/28 03:09:22;;;;;;;8.27;2.55;;;18.70;99.90;;;;;;4994124;28;20169;-79
2022/10/28 03:11:48;;;;;;;13.02;2.88;;;18.80;99.90;;;;;;4994035;28;20630;-79
2022/10/28 03:14:14;;;;;;;5.43;3.05;;;18.80;99.90;;;;;;4993915;28;20650;-80
2022/10/28 03:16:39;;;;;;;15.43;3.28;;;18.70;99.90;;;;;;4994013;28;20232;-80
2022/10/28 03:19:05;;;;;;;6.45;3.10;;;18.70;99.90;;;;;;4994879;28;20169;-82
2022/10/28 03:21:30;;;;;;;11.48;3.00;;;18.60;99.90;;;;;;4993563;28;20180;-79
2022/10/28 03:23:56;;;;;;;6.25;2.90;;;18.60;99.90;;;;;;4993536;28;20249;-80
2022/10/28 03:26:22;;;;;;;12.07;2.92;;;18.70;99.90;;;;;;4993012;28;20185;-80
2022/10/28 03:28:47;;;;;;;11.70;3.35;;;18.70;99.90;;;;;;5008223;28;20267;-80
2022/10/28 03:31:14;;;;;;;7.25;4.03;;;18.70;99.90;;;;;;4992785;28;20208;-80
2022/10/28 03:33:39;;;;;;;8.55;2.95;;;18.80;99.90;;;;;;4993306;28;20281;-80
2022/10/28 03:36:05;;;;;;;16.00;3.13;;;18.70;99.90;;;;;;4993138;28;20639;-78
2022/10/28 03:38:31;;;;;;;9.63;3.38;;;18.50;99.90;;;;;;4993299;28;20165;-77
2022/10/28 03:40:56;;;;;;;9.48;4.18;;;18.40;99.90;;;;;;4993082;28;20542;-78
2022/10/28 03:43:22;;;;;;;12.02;3.35;;;18.40;99.90;;;;;;4991558;28;20191;-78
2022/10/28 03:45:48;;;;;;;13.05;3.53;;;18.50;99.90;;;;;;4993196;28;20181;-77
2022/10/28 03:48:13;;;;;;;10.45;3.17;;;18.60;99.90;;;;;;4993087;28;20882;-78
2022/10/28 03:50:39;;;;;;;18.63;3.22;;;18.50;99.90;;;;;;4992833;28;20209;-77
2022/10/28 03:53:04;;;;;;;10.65;3.70;;;18.40;99.90;;;;;;4991532;28;20616;-77
2022/10/28 03:55:30;;;;;;;10.60;3.08;;;18.50;99.90;;;;;;4992821;28;20173;-82
2022/10/28 03:57:58;;;;;;;13.93;3.42;;;18.50;99.90;;;;;;4992916;28;20225;-80
2022/10/28 04:00:24;;;;;;;23.17;3.47;;;18.50;99.90;;;;;;4992841;28;20540;-79
2022/10/28 04:02:50;;;;;;;10.13;3.33;;;18.50;99.90;;;;;;4992899;28;20176;-79
2022/10/28 04:05:17;;;;;;;16.67;3.60;;;18.40;99.90;;;;;;4993016;28;20169;-78
2022/10/28 04:07:42;;;;;;;7.55;2.65;;;18.40;99.90;;;;;;4992835;28;20253;-80
2022/10/28 04:10:09;;;;;;;14.73;3.70;;;18.50;99.90;;;;;;4992889;28;20197;-78
2022/10/28 04:12:34;;;;;;;9.82;3.38;;;18.40;99.90;;;;;;5008319;28;20662;-79
2022/10/28 04:15:00;;;;;;;10.50;3.78;;;18.40;99.90;;;;;;4993273;28;20244;-78
2022/10/28 04:17:25;;;;;;;7.63;3.80;;;18.40;99.90;;;;;;4992487;28;20193;-79
2022/10/28 04:19:51;;;;;;;4.85;3.60;;;18.40;99.90;;;;;;4991627;28;20172;-79
2022/10/28 04:22:16;;;;;;;12.95;4.00;;;18.40;99.90;;;;;;4992564;28;20201;-79
2022/10/28 04:24:42;;;;;;;11.02;3.75;;;18.30;99.90;;;;;;4992770;28;20245;-78
2022/10/28 04:27:07;;;;;;;21.15;3.95;;;18.40;99.90;;;;;;4991227;28;20197;-81
2022/10/28 04:29:35;;;;;;;11.10;3.28;;;18.40;99.90;;;;;;4992563;28;20160;-79
2022/10/28 04:32:00;;;;;;;13.75;3.22;;;18.30;99.90;;;;;;4992423;28;20260;-83
2022/10/28 04:34:26;;;;;;;12.52;2.83;;;18.30;99.90;;;;;;4992612;28;20244;-81
2022/10/28 04:36:52;;;;;;;9.77;2.75;;;18.30;99.90;;;;;;4992283;28;20211;-80
2022/10/28 04:39:17;;;;;;;20.17;3.78;;;18.30;99.90;;;;;;4991475;28;20181;-80
2022/10/28 04:41:43;;;;;;;16.38;4.35;;;18.30;99.90;;;;;;4992647;28;20166;-79
2022/10/28 04:44:08;;;;;;;11.70;3.95;;;18.30;99.90;;;;;;5015300;28;20172;-78
2022/10/28 04:46:34;;;;;;;12.10;4.68;;;18.40;99.90;;;;;;5014757;28;20195;-79
2022/10/28 04:48:59;;;;;;;11.20;3.90;;;18.40;99.90;;;;;;5015582;28;20200;-79
2022/10/28 04:51:25;;;;;;;15.70;3.80;;;18.40;99.90;;;;;;5015083;28;20215;-79
2022/10/28 04:53:51;;;;;;;9.68;3.08;;;18.30;99.90;;;;;;5015414;28;20161;-79
2022/10/28 04:56:16;;;;;;;9.80;3.13;;;18.30;99.90;;;;;;5015239;28;20525;-79
2022/10/28 04:58:42;;;;;;;11.32;3.35;;;18.30;99.90;;;;;;5015436;28;20164;-80
2022/10/28 05:01:09;;;;;;;11.50;3.22;;;18.30;99.90;;;;;;5016909;28;20556;-80
2022/10/28 05:03:35;;;;;;;14.23;3.70;;;18.30;99.90;;;;;;5015861;28;20161;-80
2022/10/28 05:06:01;;;;;;;7.10;2.97;;;18.30;99.90;;;;;;5015889;28;20184;-82
2022/10/28 05:08:27;;;;;;;20.48;4.40;;;18.20;99.90;;;;;;5030446;28;20177;-84
2022/10/28 05:10:52;;;;;;;14.57;3.17;;;18.20;99.90;;;;;;5015735;28;20696;-80
2022/10/28 05:13:18;;;;;;;6.50;3.40;;;18.30;99.90;;;;;;5014102;28;20909;-80
2022/10/28 05:15:47;;;;;;;16.38;3.85;;;18.30;99.90;;;;;;5015103;28;20234;-80
2022/10/28 05:18:12;;;;;;;12.48;3.58;;;18.20;99.90;;;;;;5014984;28;20181;-80
2022/10/28 05:20:38;;;;;;;12.52;3.50;;;18.30;99.90;;;;;;5015163;28;20235;-78
2022/10/28 05:23:04;;;;;;;14.45;4.45;;;18.20;99.90;;;;;;5010747;28;20224;-81
2022/10/28 05:25:29;;;;;;;14.30;3.88;;;18.20;99.90;;;;;;4995420;28;20682;-79
2022/10/28 05:27:58;;;;;;;13.77;3.50;;;18.20;99.90;;;;;;4993766;28;20229;-82
2022/10/28 05:30:24;;;;;;;12.18;4.65;;;18.20;99.90;;;;;;4994857;28;20213;-81
2022/10/28 05:32:50;;;;;;;12.05;3.60;;;18.20;99.90;;;;;;4993531;28;20165;-84
2022/10/28 05:35:16;;;;;;;12.07;3.83;;;18.10;99.90;;;;;;4994916;28;20177;-82
2022/10/28 05:37:42;;;;;;;15.45;4.38;;;18.10;99.90;;;;;;4994580;28;20189;-80
2022/10/28 05:40:08;;;;;;;11.10;3.70;;;18.10;99.90;;;;;;4993774;28;20169;-81
2022/10/28 05:42:42;;;;;;;8.35;4.15;;;18.10;99.90;;;;;;4994448;28;20166;-83
2022/10/28 05:45:09;;;;;;;11.95;3.60;;;18.10;99.90;;;;;;4995069;28;20248;-80
2022/10/28 05:47:34;;;;;;;25.05;4.00;;;18.20;99.90;;;;;;4993888;28;20232;-80
2022/10/28 05:50:00;;;;;;;13.70;3.65;;;18.20;99.90;;;;;;4994653;28;20568;-86
2022/10/28 05:52:25;;;;;;;12.63;3.38;;;18.20;99.90;;;;;;4994969;28;20188;-83
2022/10/28 05:54:51;;;;;;;10.80;3.40;;;18.30;99.90;;;;;;4995864;28;20169;-84
2022/10/28 05:57:17;;;;;;;12.07;3.58;;;18.30;99.90;;;;;;5000845;28;20193;-82
2022/10/28 05:59:42;;;;;;;10.77;3.92;;;18.20;99.90;;;;;;5016154;28;20201;-80
2022/10/28 06:02:17;;;;;;;21.60;3.80;;;18.10;99.90;;;;;;5002965;28;20541;-80
2022/10/28 06:04:42;;;;;;;9.50;3.28;;;18.20;99.90;;;;;;4997404;28;20161;-81
2022/10/28 06:07:08;;;;;;;12.50;4.50;;;18.30;99.90;;;;;;4998894;28;20216;-79
2022/10/28 06:09:34;;;;;;;12.38;3.17;;;18.20;99.90;;;;;;4997076;28;20165;-84
2022/10/28 06:11:59;;;;;;;14.60;3.33;;;18.10;99.90;;;;;;4997921;28;20173;-80
2022/10/28 06:14:25;;;;;;;10.10;3.53;;;18.10;99.90;;;;;;4997013;28;20161;-80
2022/10/28 06:16:51;;;;;;;8.10;3.60;;;18.10;99.90;;;;;;4995468;28;20196;-80
2022/10/28 06:19:16;;;;;;;14.35;3.60;;;18.20;99.90;;;;;;5016868;28;20169;-79
2022/10/28 06:21:42;;;;;;;9.43;4.15;;;18.30;99.90;;;;;;5019741;28;20525;-80
2022/10/28 06:24:10;;;;;;;17.67;3.15;;;18.20;99.90;;;;;;5022363;28;20168;-82
2022/10/28 06:26:36;;;;;;;20.92;4.40;;;18.20;99.90;;;;;;5025043;28;20188;-80
2022/10/28 06:29:02;;;;;;;11.82;3.95;;;18.20;99.90;;;;;;5004367;28;20219;-82
2022/10/28 06:31:29;;;;;;;14.98;3.67;;;18.10;99.90;;;;;;5018235;28;20207;-80
2022/10/28 06:33:56;;;;;;;11.75;3.78;;;18.10;99.90;;;;;;5020313;28;20172;-84
2022/10/28 06:36:22;;;;;;;14.63;3.92;;;18.20;99.90;;;;;;5019321;28;20201;-78
2022/10/28 06:38:47;;;;;;;12.18;4.10;;;18.10;99.90;;;;;;5014484;28;20637;-80
2022/10/28 06:41:13;;;;;;;15.43;3.70;;;18.20;99.90;;;;;;5018745;28;20175;-88
2022/10/28 06:43:38;;;;;;;11.10;3.55;;;18.20;99.90;;;;;;5016631;28;20168;-86
2022/10/28 06:46:04;;;;;;;16.58;4.50;;;18.30;99.90;;;;;;5016582;28;20172;-79
2022/10/28 06:48:30;;;;;;;12.45;3.58;;;18.20;99.90;;;;;;5013349;28;20169;-79
2022/10/28 06:50:56;;;;;;;17.52;4.55;;;18.20;99.90;;;;;;5014861;28;20204;-79
2022/10/28 06:53:23;;;;;;;18.42;4.43;;;18.20;99.90;;;;;;5013192;28;20168;-79
2022/10/28 06:55:53;;;;;;;16.05;4.43;;;18.30;99.90;;;;;;5012125;28;20185;-80
2022/10/28 06:58:19;;;;;;;25.15;4.63;;;18.40;99.90;;;;;;5013423;28;20184;-78
2022/10/28 07:00:44;;;;;;;13.43;4.07;;;18.50;99.90;;;;;;5013798;28;20195;-78
2022/10/28 07:03:10;;;;;;;15.70;4.53;;;18.50;99.90;;;;;;5014005;28;20196;-79
2022/10/28 07:05:36;;;;;;;9.05;4.10;;;18.60;99.90;;;;;;5013145;28;20176;-79
2022/10/28 07:08:01;;;;;;;12.82;3.70;;;18.70;99.90;;;;;;5018979;28;20192;-80
2022/10/28 07:10:27;;;;;;;16.63;4.05;;;18.60;99.90;;;;;;5018334;28;20361;-79
2022/10/28 07:12:52;;;;;;;9.25;4.47;;;18.60;99.90;;;;;;5014193;28;20168;-80
2022/10/28 07:15:18;;;;;;;21.15;4.72;;;18.70;99.90;;;;;;5018557;28;20577;-83
2022/10/28 07:17:50;;;;;;;21.95;5.28;;;18.80;99.90;;;;;;5019147;28;20191;-83
2022/10/28 07:20:15;;;;;;;18.73;3.90;;;18.80;99.90;;;;;;5036266;28;20168;-79
2022/10/28 07:22:41;;;;;;;15.85;3.72;;;18.80;99.90;;;;;;5014630;28;20181;-80
2022/10/28 07:25:07;;;;;;;14.50;3.63;;;18.80;99.90;;;;;;5012993;28;20175;-81
2022/10/28 07:27:33;;;;;;;16.67;3.08;;;18.80;99.90;;;;;;5012447;28;20184;-80
2022/10/28 07:29:58;;;;;;;9.60;3.53;;;19.00;99.90;;;;;;5012571;28;20203;-80
2022/10/28 07:32:24;;;;;;;12.88;4.07;;;19.10;99.90;;;;;;5012848;28;20164;-81
2022/10/28 07:34:49;;;;;;;14.98;3.85;;;19.20;99.90;;;;;;5013189;28;20310;-78
2022/10/28 07:37:15;;;;;;;15.07;4.18;;;19.30;99.90;;;;;;5015356;28;20177;-79
2022/10/28 07:39:41;;;;;;;18.65;4.60;;;19.40;99.90;;;;;;5014677;28;20641;-79
2022/10/28 07:42:06;;;;;;;13.23;4.68;;;19.40;99.90;;;;;;5012812;28;20168;-80
2022/10/28 07:44:32;;;;;;;11.57;3.65;;;19.40;99.90;;;;;;5015100;28;20547;-81
2022/10/28 07:46:58;;;;;;;14.63;3.85;;;19.30;99.90;;;;;;5014716;28;20227;-82
2022/10/28 07:49:23;;;;;;;21.38;4.22;;;19.30;99.90;;;;;;5013363;28;20569;-85
2022/10/28 07:51:50;;;;;;;20.27;4.20;;;19.20;99.90;;;;;;5010820;28;20696;-78
2022/10/28 07:54:16;;;;;;;15.45;4.13;;;19.30;99.90;;;;;;5011163;28;20173;-81
2022/10/28 07:56:41;;;;;;;14.60;4.07;;;19.40;99.90;;;;;;5011329;28;20187;-81
2022/10/28 07:59:07;;;;;;;10.77;3.70;;;19.50;99.90;;;;;;5012551;28;20175;-81
2022/10/28 08:01:32;;;;;;;17.15;4.32;;;19.50;99.90;;;;;;5012639;28;20231;-81
2022/10/28 08:03:58;;;;;;;19.23;4.40;;;19.50;99.90;;;;;;5012591;28;20168;-81
2022/10/28 08:06:23;;;;;;;20.00;4.15;;;19.60;99.90;;;;;;5012205;28;20239;-81
2022/10/28 08:08:53;;;;;;;10.63;4.20;;;19.90;99.90;;;;;;5011015;28;20250;-81
2022/10/28 08:11:22;;;;;;;17.40;5.55;;;20.00;99.90;;;;;;5012629;28;20243;-81
2022/10/28 08:13:52;;;;;;;13.85;3.22;;;20.00;99.90;;;;;;5013856;28;20184;-82
2022/10/28 08:16:18;;;;;;;11.68;3.55;;;20.00;99.90;;;;;;5014737;28;20932;-86
2022/10/28 08:18:44;;;;;;;9.63;3.17;;;20.00;99.90;;;;;;5015916;28;20164;-82
2022/10/28 08:21:11;;;;;;;9.23;4.03;;;20.00;99.90;;;;;;5014854;28;20179;-82
2022/10/28 08:23:37;;;;;;;20.08;4.25;;;20.00;99.90;;;;;;5015630;28;20175;-82
2022/10/28 08:26:04;;;;;;;12.20;3.28;;;20.10;99.90;;;;;;5018284;28;20626;-83
2022/10/28 08:28:29;;;;;;;18.27;4.63;;;20.10;99.90;;;;;;5019751;28;21015;-83
2022/10/28 08:31:02;;;;;;;15.27;4.88;;;20.10;99.90;;;;;;5017182;28;20232;-83
2022/10/28 08:33:31;;;;;;;19.55;4.00;;;20.00;99.90;;;;;;5020071;28;20181;-82
2022/10/28 08:35:56;;;;;;;6.13;3.55;;;20.00;99.90;;;;;;5001663;28;20166;-88
2022/10/28 08:38:22;;;;;;;14.38;3.80;;;20.00;99.90;;;;;;4995907;28;20698;-87
2022/10/28 08:40:56;;;;;;;15.38;3.67;;;20.10;99.90;;;;;;4994078;28;20177;-80
2022/10/28 08:43:31;;;;;;;12.05;3.38;;;20.20;99.90;;;;;;5000599;28;20176;-82
2022/10/28 08:46:07;;;;;;;12.25;3.75;;;20.30;99.90;;;;;;5012707;28;20186;-84
2022/10/28 08:48:35;;;;;;;23.33;4.65;;;20.30;99.90;;;;;;5012916;28;20227;-85
2022/10/28 08:51:39;;;;;;;13.40;3.78;;;20.10;99.90;;;;;;5013822;28;20224;-83
2022/10/28 08:54:18;;;;;;;20.00;3.47;;;20.20;99.90;;;;;;5013644;28;20589;-86
2022/10/28 08:56:46;;;;;;;26.42;3.38;;;20.20;99.90;;;;;;5012949;28;20185;-84
2022/10/28 08:59:22;;;;;;;12.57;3.70;;;20.30;99.90;;;;;;5025990;28;20196;-83
2022/10/28 09:01:55;;;;;;;13.98;4.00;;;20.50;99.90;;;;;;5028025;28;20176;-84
2022/10/28 09:04:25;;;;;;;22.15;4.68;;;20.40;99.90;;;;;;5014816;28;20172;-83
2022/10/28 09:06:51;;;;;;;8.20;3.72;;;20.40;99.90;;;;;;5018742;28;20197;-82
2022/10/28 09:09:20;;;;;;;18.48;3.47;;;20.40;99.90;;;;;;5021719;28;20173;-81
2022/10/28 09:12:04;;;;;;;14.25;4.00;;;20.60;99.90;;;;;;5022005;28;20204;-82
2022/10/28 09:14:51;;;;;;;14.10;4.13;;;20.70;99.90;;;;;;5021313;28;20267;-83
2022/10/28 09:17:41;;;;;;;14.65;3.90;;;20.80;99.90;;;;;;5014364;28;20215;-81
2022/10/28 09:20:33;;;;;;;12.82;3.42;;;20.90;99.90;;;;;;5018533;28;20172;-82
2022/10/28 09:23:09;;;;;;;20.63;3.72;;;20.90;99.90;;;;;;5018694;28;20654;-81
2022/10/28 09:25:48;;;;;;;22.35;3.72;;;21.00;99.90;;;;;;5018458;28;20169;-82
2022/10/28 09:28:36;;;;;;;10.50;3.63;;;21.20;99.90;;;;;;5013605;28;20196;-81
2022/10/28 09:31:34;;;;;;;19.92;4.00;;;21.20;99.90;;;;;;5014730;28;20201;-82
2022/10/28 09:34:06;;;;;;;8.05;2.88;;;21.30;99.90;;;;;;5014537;28;20255;-82
2022/10/28 09:36:46;;;;;;;20.90;3.63;;;21.30;99.90;;;;;;5012656;28;20227;-82
2022/10/28 09:39:43;;;;;;;19.80;4.03;;;21.30;99.90;;;;;;5004886;28;20178;-85
2022/10/28 09:42:16;;;;;;;12.40;3.03;;;21.40;99.90;;;;;;4989030;28;20220;-89
2022/10/28 09:44:50;;;;;;;14.13;3.03;;;21.60;99.90;;;;;;5012235;28;20231;-83
2022/10/28 09:47:26;;;;;;;20.85;3.63;;;21.60;99.90;;;;;;5013133;28;20188;-88
2022/10/28 09:49:57;;;;;;;14.40;3.55;;;21.70;99.90;;;;;;5013541;28;20235;-84
2022/10/28 09:52:29;;;;;;;10.13;3.53;;;21.80;99.90;;;;;;5012211;28;20184;-83
2022/10/28 09:54:57;;;;;;;12.45;4.72;;;21.90;99.90;;;;;;5013890;28;20167;-84
2022/10/28 09:57:29;;;;;;;35.05;4.60;;;22.00;99.90;;;;;;5002046;28;20272;-83
2022/10/28 09:59:54;;;;;;;14.20;3.88;;;22.00;99.90;;;;;;5001876;28;20198;-83
2022/10/28 10:02:30;;;;;;;16.73;4.18;;;22.00;99.90;;;;;;5012492;28;20255;-84
2022/10/28 10:04:57;;;;;;;7.88;4.10;;;22.10;99.90;;;;;;5012096;28;20222;-86
2022/10/28 10:07:39;;;;;;;15.23;3.72;;;22.20;99.90;;;;;;5013310;28;20666;-86
2022/10/28 10:10:20;;;;;;;8.90;3.60;;;22.40;99.90;;;;;;5004797;28;20240;-83
2022/10/28 10:12:51;;;;;;;12.50;3.30;;;22.50;99.90;;;;;;4992894;28;20220;-84
2022/10/28 10:15:41;;;;;;;15.27;3.35;;;22.60;99.90;;;;;;4996591;28;20168;-83
2022/10/28 10:18:15;;;;;;;9.98;2.70;;;22.50;99.90;;;;;;5013113;28;20192;-79
2022/10/28 10:20:57;;;;;;;9.02;2.88;;;22.60;99.90;;;;;;5014373;28;20709;-81
2022/10/28 10:23:42;;;;;;;19.40;3.70;;;22.70;99.90;;;;;;5014652;28;20186;-79
2022/10/28 10:26:11;;;;;;;19.73;3.40;;;22.90;99.90;;;;;;5012849;28;20168;-79
2022/10/28 10:28:47;;;;;;;20.92;4.20;;;22.90;99.90;;;;;;5012413;28;20169;-78
2022/10/28 10:31:21;;;;;;;18.90;3.70;;;23.00;99.90;;;;;;5013725;28;20725;-79
2022/10/28 10:33:52;;;;;;;20.55;3.72;;;23.00;99.90;;;;;;5014993;28;20199;-79
2022/10/28 10:36:22;;;;;;;19.60;3.38;;;23.20;99.90;;;;;;5013313;28;20164;-79
2022/10/28 10:38:51;;;;;;;9.20;3.13;;;23.30;99.90;;;;;;5028789;28;20181;-80
2022/10/28 10:41:54;;;;;;;12.07;3.17;;;23.30;99.90;;;;;;5012612;28;20251;-79
2022/10/28 10:44:20;;;;;;;9.48;3.22;;;23.30;99.90;;;;;;4990850;28;20375;-79
2022/10/28 10:47:01;;;;;;;12.52;3.17;;;23.30;99.90;;;;;;5008257;28;20204;-81
2022/10/28 10:49:28;;;;;;;18.35;3.45;;;23.30;99.90;;;;;;5011166;28;20183;-81
2022/10/28 10:52:17;;;;;;;5.95;2.53;;;23.40;99.90;;;;;;5011219;28;20200;-81
2022/10/28 10:55:01;;;;;;;18.58;3.00;;;23.40;99.90;;;;;;5013129;28;20226;-80
2022/10/28 10:57:27;;;;;;;14.82;3.55;;;23.40;99.90;;;;;;5013016;28;20266;-81
2022/10/28 11:00:11;;;;;;;14.02;4.47;;;23.60;99.90;;;;;;5011567;28;20218;-80
2022/10/28 11:02:40;;;;;;;23.15;3.30;;;23.60;99.90;;;;;;5010773;28;20172;-82
2022/10/28 11:05:21;;;;;;;13.30;3.38;;;23.50;99.90;;;;;;5012566;28;20172;-79
2022/10/28 11:07:51;;;;;;;18.02;3.25;;;23.50;99.90;;;;;;5010707;28;20531;-79
2022/10/28 11:10:23;;;;;;;14.38;3.67;;;23.50;99.90;;;;;;5009744;28;20196;-81
2022/10/28 11:12:55;;;;;;;16.55;3.08;;;23.50;99.90;;;;;;5011801;28;20634;-80
2022/10/28 11:15:27;;;;;;;15.82;2.65;;;23.50;99.90;;;;;;5012797;28;20535;-80
2022/10/28 11:18:03;;;;;;;19.60;3.15;;;23.40;99.90;;;;;;5012731;28;20188;-79
2022/10/28 11:20:57;;;;;;;19.23;3.03;;;23.50;99.90;;;;;;5013112;28;20242;-81
2022/10/28 11:23:26;;;;;;;20.23;2.80;;;23.50;99.90;;;;;;5010201;28;20176;-81
2022/10/28 11:25:53;;;;;;;17.95;2.63;;;23.60;99.90;;;;;;5012475;28;20168;-80
2022/10/28 11:28:33;;;;;;;17.27;4.68;;;23.40;99.90;;;;;;5012734;28;20184;-81
2022/10/28 11:31:53;;;;;;;13.80;2.80;;;23.40;99.90;;;;;;5012081;28;20290;-79
2022/10/28 11:34:33;;;;;;;19.52;3.03;;;23.30;99.90;;;;;;4990371;28;20188;-87
2022/10/28 11:37:08;;;;;;;13.45;3.63;;;23.30;99.90;;;;;;5009966;28;20674;-79
2022/10/28 11:39:52;;;;;;;15.32;4.30;;;23.10;99.90;;;;;;5011695;28;20164;-80
2022/10/28 11:42:55;;;;;;;17.27;4.10;;;23.20;99.90;;;;;;5012427;28;20175;-80
2022/10/28 11:45:33;;;;;;;14.60;3.25;;;23.30;99.90;;;;;;5012804;28;20386;-78
2022/10/28 11:48:31;;;;;;;26.90;3.58;;;23.40;99.90;;;;;;5011970;28;20235;-84
2022/10/28 11:51:30;;;;;;;18.05;3.42;;;23.40;99.90;;;;;;5011393;28;20227;-82
2022/10/28 11:54:31;;;;;;;24.33;3.75;;;23.60;99.90;;;;;;5016406;28;20520;-80
2022/10/28 11:57:04;;;;;;;6.55;2.83;;;23.60;99.90;;;;;;5015938;28;20180;-80
2022/10/28 12:00:05;;;;;;;16.92;3.17;;;23.60;99.90;;;;;;5015894;28;20227;-80
2022/10/28 12:02:31;;;;;;;29.00;3.55;;;23.70;99.90;;;;;;5015846;28;20215;-80
2022/10/28 12:05:08;;;;;;;15.02;3.35;;;23.70;99.90;;;;;;5015866;28;20176;-80
2022/10/28 12:07:56;;;;;;;12.07;3.40;;;23.70;99.90;;;;;;5015431;28;20262;-79
2022/10/28 12:10:30;;;;;;;13.60;3.55;;;23.70;99.90;;;;;;5015732;28;20196;-80
2022/10/28 12:13:06;;;;;;;12.18;3.83;;;23.60;99.90;;;;;;5015984;28;20168;-79
2022/10/28 12:15:31;;;;;;;20.63;4.80;;;23.50;99.90;;;;;;5015953;28;20589;-79
2022/10/28 12:18:09;;;;;;;17.65;4.13;;;23.40;99.90;;;;;;5015775;28;20219;-79
2022/10/28 12:21:10;;;;;;;9.68;2.72;;;23.30;99.90;;;;;;5015251;28;20203;-80
2022/10/28 12:23:37;;;;;;;17.70;3.55;;;23.30;99.90;;;;;;5014389;28;20181;-79
2022/10/28 12:26:07;;;;;;;14.68;3.20;;;23.30;99.90;;;;;;5014522;28;20645;-79
2022/10/28 12:28:39;;;;;;;16.08;2.97;;;23.40;99.90;;;;;;5015412;28;20187;-80
2022/10/28 12:31:19;;;;;;;11.52;2.88;;;23.30;99.90;;;;;;5015115;28;20231;-80
2022/10/28 12:33:49;;;;;;;8.05;2.58;;;23.40;99.90;;;;;;5015289;28;20168;-80
2022/10/28 12:36:36;;;;;;;18.88;2.97;;;23.40;99.90;;;;;;5030907;28;20196;-79
2022/10/28 12:39:17;;;;;;;10.60;2.60;;;23.30;99.90;;;;;;5014722;28;20712;-80
2022/10/28 12:42:05;;;;;;;10.00;2.35;;;23.20;99.90;;;;;;5014878;28;20165;-80
2022/10/28 12:44:32;;;;;;;8.25;2.72;;;23.20;99.90;;;;;;5014615;28;20684;-80
2022/10/28 12:47:12;;;;;;;10.77;3.05;;;23.20;99.90;;;;;;5030218;28;20243;-78
2022/10/28 12:49:44;;;;;;;11.30;3.50;;;23.10;99.90;;;;;;5015159;28;20195;-82
2022/10/28 12:52:37;;;;;;;11.32;2.75;;;23.10;99.90;;;;;;5013240;28;20192;-79
2022/10/28 12:55:12;;;;;;;14.35;3.00;;;23.10;99.90;;;;;;5014622;28;20654;-79
2022/10/28 12:57:43;;;;;;;16.23;2.40;;;23.00;99.90;;;;;;5014771;28;20195;-79
2022/10/28 13:00:24;;;;;;;13.70;3.00;;;23.10;99.90;;;;;;5015516;28;20172;-79
2022/10/28 13:03:06;;;;;;;10.52;2.67;;;23.20;99.90;;;;;;5013947;28;20191;-80